SIA720 WSSS-VTBS
Flight info
| Callsign | SIA720 |
|---|---|
| Flight time | N/A |
| Altitude | 34000 |
| Route | VMR6A VMR B469 VPK M751 VKB M644 ALUMO Y12 ALEMI TUMGA1C |
| Aircraft | B77W/H-SDE1E2E3FGHIJ2J3J4J5M1RWXY/LB1D1 |
Departure
| Time | N/A |
|---|---|
| Airport | Singapore Changi Airport (WSSS) |
Arrival
| Time | 2026-05-05 14:39 |
|---|---|
| Airport | Suvarnabhumi Airport (VTBS) |
| Time | Latitude | Longitude | Altitude | Speed | Heading |
|---|---|---|---|---|---|
| 2026-05-05 14:39 | 13.67559 | 100.73393 | 15 ft | 6 kts | 15° |
| 2026-05-05 14:39 | 13.67603 | 100.73405 | 14 ft | 6 kts | 15° |
| 2026-05-05 14:39 | 13.67641 | 100.73415 | 14 ft | 6 kts | 14° |
| 2026-05-05 14:40 | 13.67680 | 100.73425 | 14 ft | 6 kts | 14° |
| 2026-05-05 14:40 | 13.67712 | 100.73434 | 14 ft | 6 kts | 14° |
| 2026-05-05 14:40 | 13.67749 | 100.73443 | 14 ft | 6 kts | 14° |
| 2026-05-05 14:40 | 13.67793 | 100.73456 | 14 ft | 6 kts | 17° |
| 2026-05-05 14:41 | 13.67836 | 100.73469 | 14 ft | 7 kts | 15° |
| 2026-05-05 14:41 | 13.67886 | 100.73483 | 14 ft | 9 kts | 14° |
| 2026-05-05 14:41 | 13.68013 | 100.73515 | 14 ft | 11 kts | 15° |
| 2026-05-05 14:42 | 13.68088 | 100.73534 | 14 ft | 12 kts | 13° |
| 2026-05-05 14:42 | 13.68168 | 100.73553 | 14 ft | 9 kts | 13° |
| 2026-05-05 14:42 | 13.68217 | 100.73566 | 14 ft | 8 kts | 14° |
| 2026-05-05 14:42 | 13.68234 | 100.73570 | 14 ft | 8 kts | 13° |
| 2026-05-05 14:43 | 13.68286 | 100.73584 | 14 ft | 7 kts | 15° |
| 2026-05-05 14:43 | 13.68319 | 100.73593 | 14 ft | 4 kts | 14° |
| 2026-05-05 14:43 | 13.68351 | 100.73601 | 14 ft | 5 kts | 14° |
| 2026-05-05 14:43 | 13.68382 | 100.73610 | 14 ft | 5 kts | 16° |
| 2026-05-05 14:44 | 13.68415 | 100.73619 | 14 ft | 1 kts | 15° |
| 2026-05-05 14:44 | 13.68420 | 100.73620 | 14 ft | 0 kts | 14° |
| 2026-05-05 14:44 | 13.68424 | 100.73621 | 14 ft | 0 kts | 14° |
| 2026-05-05 14:44 | 13.68428 | 100.73622 | 14 ft | 0 kts | 14° |
| 2026-05-05 14:45 | 13.68430 | 100.73623 | 14 ft | 0 kts | 14° |
| 2026-05-05 14:45 | 13.68431 | 100.73623 | 14 ft | 0 kts | 14° |
| 2026-05-05 14:45 | 13.68440 | 100.73625 | 14 ft | 3 kts | 13° |
| 2026-05-05 14:46 | 13.68464 | 100.73631 | 14 ft | 4 kts | 13° |
| 2026-05-05 14:46 | 13.68488 | 100.73637 | 14 ft | 1 kts | 13° |
| 2026-05-05 14:46 | 13.68494 | 100.73639 | 14 ft | 0 kts | 13° |
| 2026-05-05 14:46 | 13.68496 | 100.73639 | 14 ft | 0 kts | 13° |
| 2026-05-05 14:50 | 13.68499 | 100.73640 | 14 ft | 2 kts | 13° |
| 2026-05-05 14:50 | 13.68540 | 100.73649 | 14 ft | 11 kts | 13° |
| 2026-05-05 14:50 | 13.68600 | 100.73664 | 14 ft | 1 kts | 14° |
| 2026-05-05 14:50 | 13.68609 | 100.73666 | 14 ft | 1 kts | 14° |
| 2026-05-05 14:51 | 13.68640 | 100.73675 | 14 ft | 10 kts | 14° |
| 2026-05-05 14:51 | 13.68695 | 100.73689 | 14 ft | 11 kts | 14° |
| 2026-05-05 14:51 | 13.68764 | 100.73708 | 14 ft | 7 kts | 26° |
| 2026-05-05 14:51 | 13.68783 | 100.73745 | 14 ft | 7 kts | 83° |
| 2026-05-05 14:52 | 13.68773 | 100.73818 | 14 ft | 12 kts | 107° |
| 2026-05-05 14:52 | 13.68752 | 100.73904 | 14 ft | 14 kts | 103° |
| 2026-05-05 14:52 | 13.68735 | 100.73978 | 14 ft | 0 kts | 103° |
| 2026-05-05 14:53 | 13.68733 | 100.73986 | 14 ft | 5 kts | 103° |
| 2026-05-05 14:53 | 13.68718 | 100.74046 | 14 ft | 14 kts | 105° |
| 2026-05-05 14:53 | 13.68695 | 100.74132 | 14 ft | 14 kts | 105° |
| 2026-05-05 14:54 | 13.68674 | 100.74219 | 14 ft | 13 kts | 104° |
| 2026-05-05 14:54 | 13.68656 | 100.74296 | 14 ft | 12 kts | 100° |
| 2026-05-05 14:54 | 13.68668 | 100.74349 | 14 ft | 9 kts | 50° |
| 2026-05-05 14:54 | 13.68736 | 100.74382 | 14 ft | 12 kts | 16° |
| 2026-05-05 14:55 | 13.68777 | 100.74393 | 14 ft | 6 kts | 15° |
| 2026-05-05 14:55 | 13.68820 | 100.74405 | 14 ft | 5 kts | 14° |
| 2026-05-05 14:55 | 13.68862 | 100.74414 | 14 ft | 6 kts | 11° |
| 2026-05-05 14:55 | 13.68903 | 100.74423 | 14 ft | 5 kts | 12° |
| 2026-05-05 14:56 | 13.68931 | 100.74430 | 14 ft | 2 kts | 24° |
| 2026-05-05 14:56 | 13.68939 | 100.74439 | 14 ft | 1 kts | 62° |
| 2026-05-05 14:56 | 13.68942 | 100.74451 | 14 ft | 2 kts | 84° |
| 2026-05-05 14:56 | 13.68940 | 100.74467 | 14 ft | 3 kts | 102° |
| 2026-05-05 14:57 | 13.68934 | 100.74492 | 14 ft | 2 kts | 104° |
| 2026-05-05 14:57 | 13.68928 | 100.74514 | 14 ft | 1 kts | 104° |
| 2026-05-05 14:57 | 13.68927 | 100.74520 | 14 ft | 0 kts | 104° |